createdAt,value
2019-02-16T00:00:37.183Z,5.30
2019-02-16T00:03:05.767Z,5.30
2019-02-16T00:05:34.307Z,5.30
2019-02-16T00:08:03.004Z,5.30
2019-02-16T00:10:31.671Z,5.20
2019-02-16T00:13:00.367Z,5.30
2019-02-16T00:15:29.058Z,5.30
2019-02-16T00:18:09.915Z,5.20
2019-02-16T00:20:38.549Z,5.20
2019-02-16T00:23:07.187Z,5.20
2019-02-16T00:25:35.807Z,5.20
2019-02-16T00:28:04.529Z,5.20
2019-02-16T00:30:33.171Z,5.10
2019-02-16T00:33:01.679Z,5.10
2019-02-16T00:35:30.634Z,5.00
2019-02-16T00:37:59.292Z,5.00
2019-02-16T00:40:27.852Z,5.00
2019-02-16T00:42:56.476Z,5.00
2019-02-16T00:45:25.162Z,4.90
2019-02-16T00:47:53.799Z,5.00
2019-02-16T00:50:22.398Z,5.00
2019-02-16T00:52:51.008Z,5.00
2019-02-16T00:55:19.542Z,5.00
2019-02-16T00:57:48.118Z,5.00
2019-02-16T01:00:16.826Z,4.90
2019-02-16T01:02:45.371Z,4.80
2019-02-16T01:05:14.002Z,4.80
2019-02-16T01:07:42.652Z,4.70
2019-02-16T01:10:11.321Z,4.60
2019-02-16T01:12:39.981Z,4.60
2019-02-16T01:15:09.168Z,4.50
2019-02-16T01:17:37.676Z,4.50
2019-02-16T01:20:08.831Z,4.50
2019-02-16T01:22:37.456Z,4.40
2019-02-16T01:25:06.429Z,4.40
2019-02-16T01:27:34.949Z,4.40
2019-02-16T01:30:03.649Z,4.40
2019-02-16T01:32:32.315Z,4.30
2019-02-16T01:35:00.874Z,4.30
2019-02-16T01:37:29.377Z,4.30
2019-02-16T01:39:57.936Z,4.20
2019-02-16T01:42:26.672Z,4.20
2019-02-16T01:44:55.257Z,4.10
2019-02-16T01:47:23.789Z,3.90
2019-02-16T01:49:52.447Z,3.90
2019-02-16T01:52:21.044Z,3.80
2019-02-16T01:54:49.736Z,3.80
2019-02-16T01:57:18.375Z,3.70
2019-02-16T01:59:47.089Z,3.60
2019-02-16T02:02:15.469Z,3.60
2019-02-16T02:04:44.118Z,3.50
2019-02-16T02:07:12.664Z,3.50
2019-02-16T02:09:41.261Z,3.40
2019-02-16T02:12:10.048Z,3.40
2019-02-16T02:14:38.535Z,3.30
2019-02-16T02:17:07.139Z,3.30
2019-02-16T02:19:35.786Z,3.30
2019-02-16T02:22:04.360Z,3.20
2019-02-16T02:24:33.024Z,3.20
2019-02-16T02:27:01.643Z,3.20
2019-02-16T02:29:30.085Z,3.10
2019-02-16T02:31:58.640Z,3.10
2019-02-16T02:34:27.220Z,3.10
2019-02-16T02:36:55.776Z,3.10
2019-02-16T02:39:24.378Z,3.00
2019-02-16T02:41:53.054Z,3.00
2019-02-16T02:44:21.777Z,3.00
2019-02-16T02:46:50.334Z,3.00
2019-02-16T02:49:19.026Z,2.90
2019-02-16T02:51:52.213Z,2.90
2019-02-16T02:54:17.778Z,2.90
2019-02-16T02:56:46.426Z,2.90
2019-02-16T02:59:15.100Z,2.80
2019-02-16T03:01:43.602Z,2.80
2019-02-16T03:04:12.179Z,2.80
2019-02-16T03:06:40.867Z,2.80
2019-02-16T03:09:09.483Z,2.70
2019-02-16T03:11:38.087Z,2.70
2019-02-16T03:14:06.721Z,2.70
2019-02-16T03:16:35.242Z,2.70
2019-02-16T03:19:03.768Z,2.70
2019-02-16T03:21:32.423Z,2.70
2019-02-16T03:24:00.971Z,2.60
2019-02-16T03:26:42.144Z,2.60
2019-02-16T03:29:28.930Z,2.60
2019-02-16T03:32:09.838Z,2.60
2019-02-16T03:34:53.890Z,2.60
2019-02-16T03:37:42.126Z,2.50
2019-02-16T03:40:12.404Z,2.50
2019-02-16T03:42:41.023Z,2.50
2019-02-16T03:45:09.713Z,2.50
2019-02-16T03:47:38.297Z,2.50
2019-02-16T03:50:08.709Z,2.50
2019-02-16T03:52:37.303Z,2.40
2019-02-16T03:55:06.238Z,2.40
2019-02-16T03:57:34.825Z,2.40
2019-02-16T04:00:03.580Z,2.40
2019-02-16T04:02:32.193Z,2.50
2019-02-16T04:05:00.663Z,2.50
2019-02-16T04:07:29.248Z,2.40
2019-02-16T04:09:57.885Z,2.40
2019-02-16T04:12:26.419Z,2.40
2019-02-16T04:14:54.939Z,2.40
2019-02-16T04:17:23.622Z,2.40
2019-02-16T04:19:52.271Z,2.40
2019-02-16T04:22:24.587Z,2.40
2019-02-16T04:24:51.153Z,2.40
2019-02-16T04:27:19.743Z,2.30
2019-02-16T04:29:48.309Z,2.30
2019-02-16T04:32:16.998Z,2.30
2019-02-16T04:34:45.694Z,2.30
2019-02-16T04:37:14.412Z,2.20
2019-02-16T04:39:42.956Z,2.20
2019-02-16T04:42:11.497Z,2.20
2019-02-16T04:44:40.069Z,2.10
2019-02-16T04:47:08.678Z,2.20
2019-02-16T04:49:37.252Z,2.20
2019-02-16T04:52:05.972Z,2.10
2019-02-16T04:54:34.406Z,2.10
2019-02-16T04:57:02.944Z,2.10
2019-02-16T04:59:31.686Z,2.10
2019-02-16T05:02:00.243Z,2.10
2019-02-16T05:04:28.796Z,2.10
2019-02-16T05:06:57.368Z,2.00
2019-02-16T05:09:26.014Z,2.00
2019-02-16T05:11:54.511Z,2.00
2019-02-16T05:14:23.245Z,2.00
2019-02-16T05:16:55.298Z,2.00
2019-02-16T05:19:23.829Z,2.00
2019-02-16T05:21:52.425Z,1.90
2019-02-16T05:24:21.032Z,1.90
2019-02-16T05:26:49.531Z,1.90
2019-02-16T05:29:18.393Z,1.80
2019-02-16T05:31:47.288Z,1.90
2019-02-16T05:34:16.089Z,1.90
2019-02-16T05:36:44.670Z,1.80
2019-02-16T05:39:13.191Z,1.80
2019-02-16T05:41:41.754Z,1.80
2019-02-16T05:44:10.371Z,1.80
2019-02-16T05:46:39.122Z,1.80
2019-02-16T05:49:07.773Z,1.80
2019-02-16T05:51:36.259Z,1.80
2019-02-16T05:54:04.766Z,1.80
2019-02-16T05:56:33.384Z,1.90
2019-02-16T05:59:02.088Z,1.90
2019-02-16T06:01:30.596Z,1.90
2019-02-16T06:03:59.176Z,1.90
2019-02-16T06:06:27.787Z,2.00
2019-02-16T06:08:56.352Z,2.00
2019-02-16T06:11:24.930Z,2.00
2019-02-16T06:13:53.574Z,2.10
2019-02-16T06:16:22.171Z,2.20
2019-02-16T06:18:50.859Z,2.30
2019-02-16T06:21:19.460Z,2.60
2019-02-16T06:23:48.112Z,2.90
2019-02-16T06:26:16.746Z,3.10
2019-02-16T06:28:45.288Z,3.50
2019-02-16T06:31:13.989Z,3.70
2019-02-16T06:33:42.477Z,3.90
2019-02-16T06:36:12.718Z,4.30
2019-02-16T06:38:41.321Z,4.70
2019-02-16T06:41:09.889Z,5.20
2019-02-16T06:43:38.553Z,5.90
2019-02-16T06:46:07.070Z,6.60
2019-02-16T06:48:35.515Z,7.40
2019-02-16T06:51:04.234Z,8.30
2019-02-16T06:53:32.856Z,9.20
2019-02-16T06:56:02.983Z,9.90
2019-02-16T06:58:33.466Z,10.70
2019-02-16T07:01:02.037Z,11.40
2019-02-16T07:03:30.731Z,11.80
2019-02-16T07:05:59.463Z,11.70
2019-02-16T07:08:28.150Z,11.90
2019-02-16T07:10:56.776Z,12.10
2019-02-16T07:13:25.408Z,12.50
2019-02-16T07:16:11.959Z,13.00
2019-02-16T07:18:42.185Z,13.50
2019-02-16T07:21:10.942Z,13.60
2019-02-16T07:23:39.525Z,13.70
2019-02-16T07:26:08.191Z,13.90
2019-02-16T07:28:36.896Z,14.10
2019-02-16T07:31:05.568Z,14.20
2019-02-16T07:33:34.300Z,14.40
2019-02-16T07:36:02.898Z,14.80
2019-02-16T07:38:32.974Z,15.10
2019-02-16T07:41:01.613Z,15.50
2019-02-16T07:43:37.869Z,15.50
2019-02-16T07:46:14.315Z,15.60
2019-02-16T07:48:44.486Z,16.00
2019-02-16T07:51:14.685Z,16.30
2019-02-16T07:53:48.063Z,16.50
2019-02-16T07:56:21.274Z,16.60
2019-02-16T07:59:07.864Z,16.90
2019-02-16T08:01:40.823Z,17.10
2019-02-16T08:04:23.256Z,17.50
2019-02-16T08:07:11.689Z,17.30
2019-02-16T08:09:44.622Z,17.50
2019-02-16T08:12:14.827Z,17.70
2019-02-16T08:14:54.163Z,17.80
2019-02-16T08:17:27.157Z,17.50
2019-02-16T08:20:12.403Z,17.00
2019-02-16T08:22:45.677Z,16.60
2019-02-16T08:25:34.318Z,16.70
2019-02-16T08:28:10.407Z,16.70
2019-02-16T08:30:40.707Z,16.60
2019-02-16T08:33:21.404Z,16.40
2019-02-16T08:36:00.838Z,16.30
2019-02-16T08:38:40.340Z,16.20
2019-02-16T08:41:27.145Z,16.30
2019-02-16T08:44:00.115Z,16.30
2019-02-16T08:46:30.419Z,16.30
2019-02-16T08:49:06.199Z,16.20
2019-02-16T08:51:36.445Z,16.00
2019-02-16T08:54:09.428Z,16.00
2019-02-16T08:56:43.657Z,16.00
2019-02-16T08:59:29.093Z,15.70
2019-02-16T09:02:08.311Z,15.30
2019-02-16T09:04:38.582Z,15.30
2019-02-16T09:07:25.111Z,14.70
2019-02-16T09:10:04.419Z,14.00
2019-02-16T09:12:37.732Z,13.00
2019-02-16T09:15:27.396Z,11.90
2019-02-16T09:17:57.787Z,11.10
2019-02-16T09:20:27.980Z,10.40
2019-02-16T09:22:58.096Z,10.10
2019-02-16T09:25:31.116Z,9.80
2019-02-16T09:28:10.169Z,9.60
2019-02-16T09:30:55.716Z,9.50
2019-02-16T09:33:28.766Z,9.40
2019-02-16T09:36:01.864Z,9.40
2019-02-16T09:38:38.468Z,9.40
2019-02-16T09:41:14.506Z,9.40
2019-02-16T09:43:47.404Z,9.40
2019-02-16T09:46:26.593Z,9.50
2019-02-16T09:49:14.999Z,9.60
2019-02-16T09:51:47.810Z,9.70
2019-02-16T09:54:24.018Z,9.70
2019-02-16T09:56:54.348Z,9.70
2019-02-16T09:59:24.534Z,9.70
2019-02-16T10:02:03.364Z,9.80
2019-02-16T10:04:39.616Z,9.80
2019-02-16T10:07:19.012Z,9.90
2019-02-16T10:10:01.682Z,9.90
2019-02-16T10:12:47.017Z,9.90
2019-02-16T10:15:17.163Z,9.90
2019-02-16T10:17:47.391Z,9.90
2019-02-16T10:20:17.700Z,9.90
2019-02-16T10:22:53.725Z,9.90
2019-02-16T10:25:32.437Z,9.90
2019-02-16T10:28:02.672Z,10.00
2019-02-16T10:30:48.817Z,10.00
2019-02-16T10:33:21.862Z,10.10
2019-02-16T10:35:57.900Z,10.10
2019-02-16T10:38:30.773Z,10.10
2019-02-16T10:41:17.394Z,10.10
2019-02-16T10:43:47.627Z,10.10
2019-02-16T10:46:23.776Z,10.10
2019-02-16T10:48:59.753Z,10.10
2019-02-16T10:51:46.179Z,10.20
2019-02-16T10:54:16.506Z,10.10
2019-02-16T10:56:49.794Z,10.20
2019-02-16T10:59:36.242Z,10.20
2019-02-16T11:02:06.446Z,10.20
2019-02-16T11:04:38.501Z,10.30
2019-02-16T11:07:14.311Z,10.30
2019-02-16T11:09:44.641Z,10.40
2019-02-16T11:12:21.002Z,10.40
2019-02-16T11:14:59.831Z,10.40
2019-02-16T11:17:30.069Z,10.50
2019-02-16T11:20:00.451Z,10.50
2019-02-16T11:22:30.603Z,10.60
2019-02-16T11:25:16.182Z,10.70
2019-02-16T11:27:48.795Z,10.70
2019-02-16T11:30:19.077Z,10.70
2019-02-16T11:32:49.312Z,10.70
2019-02-16T11:35:19.582Z,10.70
2019-02-16T11:37:49.715Z,10.70
2019-02-16T11:40:20.045Z,10.70
2019-02-16T11:42:50.517Z,10.70
2019-02-16T11:45:20.794Z,10.70
2019-02-16T11:48:00.759Z,10.70
2019-02-16T11:50:36.782Z,10.80
2019-02-16T11:53:18.817Z,10.80
2019-02-16T11:55:54.831Z,10.90
2019-02-16T11:58:43.490Z,10.90
2019-02-16T12:01:13.665Z,10.90
2019-02-16T12:03:43.874Z,10.90
2019-02-16T12:06:14.200Z,10.90
2019-02-16T12:08:44.411Z,11.00
2019-02-16T12:11:20.760Z,10.90
2019-02-16T12:13:53.897Z,10.90
2019-02-16T12:16:30.231Z,10.90
2019-02-16T12:19:02.916Z,10.90
2019-02-16T12:21:42.687Z,10.90
2019-02-16T12:24:29.344Z,10.90
2019-02-16T12:27:17.661Z,10.90
2019-02-16T12:29:53.764Z,10.90
2019-02-16T12:32:33.233Z,10.90
2019-02-16T12:35:19.988Z,11.00
2019-02-16T12:37:59.009Z,11.00
2019-02-16T12:40:29.246Z,11.00
2019-02-16T12:43:08.737Z,11.00
2019-02-16T12:45:51.147Z,11.00
2019-02-16T12:48:26.540Z,11.00
2019-02-16T12:51:11.732Z,11.00
2019-02-16T12:53:51.008Z,11.00
2019-02-16T12:56:27.331Z,11.10
2019-02-16T12:58:57.605Z,11.10
2019-02-16T13:01:28.066Z,11.10
2019-02-16T13:04:13.186Z,11.00
2019-02-16T13:06:52.523Z,11.10
2019-02-16T13:09:22.898Z,11.10
2019-02-16T13:12:08.263Z,11.00
2019-02-16T13:14:47.095Z,11.10
2019-02-16T13:17:23.306Z,11.10
2019-02-16T13:19:53.622Z,11.10
2019-02-16T13:22:27.035Z,11.20
2019-02-16T13:25:03.355Z,11.20
2019-02-16T13:27:33.590Z,11.20
2019-02-16T13:30:06.769Z,11.10
2019-02-16T13:32:45.729Z,11.10
2019-02-16T13:35:19.190Z,11.00
2019-02-16T13:37:49.310Z,10.90
2019-02-16T13:40:25.423Z,10.90
2019-02-16T13:42:58.504Z,10.90
2019-02-16T13:45:47.164Z,10.80
2019-02-16T13:48:23.776Z,10.80
2019-02-16T13:51:03.490Z,10.70
2019-02-16T13:53:46.162Z,10.70
2019-02-16T13:56:25.100Z,10.70
2019-02-16T13:59:11.468Z,10.60
2019-02-16T14:01:41.684Z,10.60
2019-02-16T14:04:12.970Z,10.50
2019-02-16T14:06:48.961Z,10.40
2019-02-16T14:09:31.015Z,10.40
2019-02-16T14:12:01.317Z,10.30
2019-02-16T14:14:40.687Z,10.30
2019-02-16T14:17:16.512Z,10.20
2019-02-16T14:19:45.203Z,10.20
2019-02-16T14:22:13.795Z,10.20
2019-02-16T14:24:43.975Z,10.10
2019-02-16T14:27:12.632Z,10.00
2019-02-16T14:29:41.337Z,10.00
2019-02-16T14:32:10.008Z,10.00
2019-02-16T14:34:38.510Z,9.90
2019-02-16T14:37:08.760Z,9.80
2019-02-16T14:39:38.633Z,9.70
2019-02-16T14:42:07.446Z,9.70
2019-02-16T14:44:35.995Z,9.70
2019-02-16T14:47:04.707Z,9.60
2019-02-16T14:49:33.634Z,9.50
2019-02-16T14:52:02.307Z,9.40
2019-02-16T14:54:30.965Z,9.40
2019-02-16T14:56:59.584Z,9.30
2019-02-16T14:59:28.166Z,9.30
2019-02-16T15:01:56.828Z,9.20
2019-02-16T15:04:25.256Z,9.20
2019-02-16T15:06:53.906Z,9.10
2019-02-16T15:09:22.479Z,9.10
2019-02-16T15:11:51.061Z,9.00
2019-02-16T15:14:19.807Z,8.90
2019-02-16T15:16:48.572Z,8.90
2019-02-16T15:19:17.147Z,8.80
2019-02-16T15:21:45.807Z,8.70
2019-02-16T15:24:14.479Z,8.60
2019-02-16T15:26:43.061Z,8.50
2019-02-16T15:29:11.630Z,8.50
2019-02-16T15:31:40.280Z,8.40
2019-02-16T15:34:09.031Z,8.30
2019-02-16T15:36:37.829Z,8.20
2019-02-16T15:39:07.270Z,8.10
2019-02-16T15:41:35.909Z,8.00
2019-02-16T15:44:04.547Z,8.00
2019-02-16T15:46:33.225Z,7.90
2019-02-16T15:49:01.898Z,7.90
2019-02-16T15:51:30.495Z,7.80
2019-02-16T15:53:59.326Z,7.80
2019-02-16T15:56:27.977Z,7.70
2019-02-16T15:58:56.692Z,7.70
2019-02-16T16:01:25.445Z,7.70
2019-02-16T16:03:54.136Z,7.70
2019-02-16T16:06:22.705Z,7.70
2019-02-16T16:08:52.933Z,7.60
2019-02-16T16:11:38.039Z,7.60
2019-02-16T16:14:08.408Z,7.50
2019-02-16T16:16:38.706Z,7.40
2019-02-16T16:19:08.950Z,7.40
2019-02-16T16:21:39.262Z,7.30
2019-02-16T16:24:12.570Z,7.30
2019-02-16T16:26:42.819Z,7.20
2019-02-16T16:29:24.966Z,7.20
2019-02-16T16:31:55.340Z,7.10
2019-02-16T16:34:25.487Z,7.10
2019-02-16T16:37:01.331Z,7.00
2019-02-16T16:39:31.536Z,7.00
2019-02-16T16:42:01.810Z,7.00
2019-02-16T16:44:32.134Z,6.90
2019-02-16T16:47:19.221Z,6.90
2019-02-16T16:49:49.437Z,6.80
2019-02-16T16:52:19.722Z,6.80
2019-02-16T16:54:59.431Z,6.70
2019-02-16T16:57:29.555Z,6.70
2019-02-16T17:00:02.737Z,6.70
2019-02-16T17:02:39.039Z,6.60
2019-02-16T17:05:09.523Z,6.60
2019-02-16T17:07:45.506Z,6.60
2019-02-16T17:10:27.689Z,6.50
2019-02-16T17:13:13.912Z,6.50
2019-02-16T17:15:46.686Z,6.50
2019-02-16T17:18:16.994Z,6.50
2019-02-16T17:20:57.932Z,6.40
2019-02-16T17:23:43.250Z,6.30
2019-02-16T17:26:19.277Z,6.30
2019-02-16T17:29:07.780Z,6.20
2019-02-16T17:31:40.828Z,6.20
2019-02-16T17:34:11.074Z,6.10
2019-02-16T17:36:44.136Z,6.10
2019-02-16T17:39:14.424Z,6.10
2019-02-16T17:41:44.724Z,6.00
2019-02-16T17:44:33.439Z,6.00
2019-02-16T17:47:12.547Z,6.00
2019-02-16T17:49:48.749Z,5.90
2019-02-16T17:52:28.134Z,5.90
2019-02-16T17:55:13.289Z,5.80
2019-02-16T17:57:43.430Z,5.80
2019-02-16T18:00:29.396Z,5.80
2019-02-16T18:02:59.656Z,5.80
2019-02-16T18:05:29.863Z,5.80
2019-02-16T18:08:00.096Z,5.70
2019-02-16T18:10:46.282Z,5.80
2019-02-16T18:13:16.484Z,5.80
2019-02-16T18:15:49.313Z,5.70
2019-02-16T18:18:35.555Z,5.70
2019-02-16T18:21:06.293Z,5.70
2019-02-16T18:23:43.050Z,5.60
2019-02-16T18:26:13.233Z,5.60
2019-02-16T18:29:01.851Z,5.50
2019-02-16T18:31:37.960Z,5.50
2019-02-16T18:34:17.042Z,5.50
2019-02-16T18:36:59.630Z,5.50
2019-02-16T18:39:39.272Z,5.50
2019-02-16T18:42:09.394Z,5.50
2019-02-16T18:44:39.514Z,5.40
2019-02-16T18:47:09.867Z,5.40
2019-02-16T18:49:40.063Z,5.30
2019-02-16T18:52:25.385Z,5.30
2019-02-16T18:55:10.612Z,5.30
2019-02-16T18:57:49.834Z,5.20
2019-02-16T19:00:20.654Z,5.30
2019-02-16T19:02:51.005Z,5.30
2019-02-16T19:05:21.312Z,5.30
2019-02-16T19:07:51.588Z,5.30
2019-02-16T19:10:21.818Z,5.40
2019-02-16T19:13:01.169Z,5.40
2019-02-16T19:15:40.258Z,5.50
2019-02-16T19:18:10.504Z,5.50
2019-02-16T19:20:50.278Z,5.50
2019-02-16T19:23:29.234Z,5.50
2019-02-16T19:26:02.562Z,5.60
2019-02-16T19:28:59.797Z,5.60
2019-02-16T19:31:49.401Z,5.60
2019-02-16T19:34:19.688Z,5.60
2019-02-16T19:36:59.321Z,5.60
2019-02-16T19:39:35.609Z,5.60
2019-02-16T19:42:08.773Z,5.60
2019-02-16T19:44:42.077Z,5.60
2019-02-16T19:47:20.933Z,5.60
2019-02-16T19:49:51.261Z,5.70
2019-02-16T19:52:24.318Z,5.70
2019-02-16T19:55:00.535Z,5.70
2019-02-16T19:57:39.701Z,5.70
2019-02-16T20:00:30.370Z,5.80
2019-02-16T20:03:15.797Z,5.80
2019-02-16T20:05:46.010Z,5.70
2019-02-16T20:08:21.787Z,5.70
2019-02-16T20:11:08.287Z,5.70
2019-02-16T20:13:44.352Z,5.70
2019-02-16T20:16:27.602Z,5.60
2019-02-16T20:19:00.613Z,5.60
2019-02-16T20:21:39.634Z,5.60
2019-02-16T20:24:12.619Z,5.60
2019-02-16T20:26:45.716Z,5.60
2019-02-16T20:29:15.982Z,5.60
2019-02-16T20:32:01.716Z,5.60
2019-02-16T20:34:31.918Z,5.80
2019-02-16T20:37:02.137Z,5.90
2019-02-16T20:39:32.334Z,6.10
2019-02-16T20:42:05.298Z,6.20
2019-02-16T20:44:53.802Z,6.40
2019-02-16T20:47:39.246Z,6.50
2019-02-16T20:50:27.709Z,6.60
2019-02-16T20:52:57.899Z,6.60
2019-02-16T20:55:34.249Z,6.70
2019-02-16T20:58:13.605Z,6.70
2019-02-16T21:00:46.639Z,6.70
2019-02-16T21:03:20.066Z,6.70
2019-02-16T21:06:05.474Z,6.70
2019-02-16T21:08:52.102Z,6.70
2019-02-16T21:11:45.005Z,6.70
2019-02-16T21:14:30.075Z,6.70
2019-02-16T21:17:02.983Z,6.70
2019-02-16T21:19:41.801Z,6.70
2019-02-16T21:22:21.001Z,6.70
2019-02-16T21:24:55.255Z,6.60
2019-02-16T21:27:31.488Z,6.50
2019-02-16T21:30:01.806Z,6.50
2019-02-16T21:32:35.199Z,6.40
2019-02-16T21:35:05.568Z,6.30
2019-02-16T21:37:35.800Z,6.20
2019-02-16T21:40:09.199Z,6.20
2019-02-16T21:42:42.121Z,6.20
2019-02-16T21:45:12.992Z,6.20
2019-02-16T21:47:43.187Z,6.30
2019-02-16T21:50:30.157Z,6.40
2019-02-16T21:53:21.007Z,6.50
2019-02-16T21:55:50.083Z,6.60
2019-02-16T21:58:20.587Z,6.60
2019-02-16T22:00:59.616Z,6.70
2019-02-16T22:03:29.987Z,6.70
2019-02-16T22:06:06.561Z,6.80
2019-02-16T22:08:48.795Z,6.80
2019-02-16T22:11:34.325Z,6.80
2019-02-16T22:14:02.971Z,6.80
2019-02-16T22:16:37.237Z,6.80
2019-02-16T22:19:05.919Z,6.80
2019-02-16T22:21:36.400Z,6.90
2019-02-16T22:24:04.981Z,6.90
2019-02-16T22:26:33.739Z,6.90
2019-02-16T22:29:02.496Z,6.90
2019-02-16T22:31:31.222Z,6.80
2019-02-16T22:33:59.827Z,6.80
2019-02-16T22:36:28.543Z,6.70
2019-02-16T22:38:58.302Z,6.60
2019-02-16T22:41:27.094Z,6.50
2019-02-16T22:43:55.983Z,6.40
2019-02-16T22:46:24.485Z,6.30
2019-02-16T22:48:53.519Z,6.30
2019-02-16T22:51:22.095Z,6.30
2019-02-16T22:53:50.656Z,6.30
2019-02-16T22:56:19.567Z,6.20
2019-02-16T22:58:48.254Z,6.20
2019-02-16T23:01:16.832Z,6.20
2019-02-16T23:03:45.560Z,6.20
2019-02-16T23:06:14.200Z,6.20
2019-02-16T23:08:42.785Z,6.20
2019-02-16T23:11:11.413Z,6.20
2019-02-16T23:13:40.111Z,6.20
2019-02-16T23:16:08.800Z,6.20
2019-02-16T23:18:37.510Z,6.20
2019-02-16T23:21:06.075Z,6.20
2019-02-16T23:23:34.971Z,6.10
2019-02-16T23:26:04.173Z,6.10
2019-02-16T23:28:39.026Z,6.00
2019-02-16T23:31:03.209Z,5.90
2019-02-16T23:33:31.918Z,5.80
2019-02-16T23:36:20.039Z,5.80
2019-02-16T23:38:48.657Z,5.70
2019-02-16T23:41:17.243Z,5.60
2019-02-16T23:43:45.891Z,5.50
2019-02-16T23:46:14.521Z,5.50
2019-02-16T23:48:43.099Z,5.40
2019-02-16T23:51:11.709Z,5.30
2019-02-16T23:53:40.679Z,5.30
2019-02-16T23:56:09.205Z,5.20
2019-02-16T23:58:37.930Z,5.20
